createdAt,value
2022-08-27T00:00:43.015Z,50.14
2022-08-27T00:03:09.941Z,50.28
2022-08-27T00:05:37.383Z,50.69
2022-08-27T00:08:07.998Z,50.37
2022-08-27T00:10:35.001Z,50.25
2022-08-27T00:13:02.262Z,50.43
2022-08-27T00:15:29.888Z,50.44
2022-08-27T00:17:57.173Z,50.67
2022-08-27T00:20:26.276Z,50.64
2022-08-27T00:22:53.993Z,50.88
2022-08-27T00:25:21.052Z,50.58
2022-08-27T00:27:48.017Z,50.65
2022-08-27T00:30:16.451Z,50.58
2022-08-27T00:32:43.588Z,50.93
2022-08-27T00:35:11.333Z,50.81
2022-08-27T00:37:38.515Z,50.59
2022-08-27T00:40:10.124Z,50.62
2022-08-27T00:42:37.299Z,50.95
2022-08-27T00:45:08.149Z,51.10
2022-08-27T00:47:40.882Z,50.71
2022-08-27T00:50:11.337Z,50.86
2022-08-27T00:52:51.728Z,50.98
2022-08-27T00:55:21.777Z,51.25
2022-08-27T00:57:52.840Z,51.37
2022-08-27T01:00:20.496Z,51.19
2022-08-27T01:02:48.905Z,51.66
2022-08-27T01:05:21.878Z,51.25
2022-08-27T01:07:50.690Z,51.38
2022-08-27T01:10:20.454Z,51.28
2022-08-27T01:12:53.299Z,51.15
2022-08-27T01:15:21.829Z,51.41
2022-08-27T01:17:49.106Z,51.41
2022-08-27T01:20:19.571Z,51.58
2022-08-27T01:22:54.238Z,51.87
2022-08-27T01:25:22.063Z,51.35
2022-08-27T01:27:49.362Z,51.96
2022-08-27T01:30:18.500Z,51.81
2022-08-27T01:32:46.033Z,51.47
2022-08-27T01:35:15.007Z,51.72
2022-08-27T01:37:44.011Z,52.06
2022-08-27T01:40:13.636Z,51.82
2022-08-27T01:42:45.858Z,51.81
2022-08-27T01:45:14.967Z,51.92
2022-08-27T01:47:42.778Z,51.96
2022-08-27T01:50:15.549Z,52.25
2022-08-27T01:52:42.560Z,52.12
2022-08-27T01:55:10.382Z,51.92
2022-08-27T01:57:37.609Z,51.91
2022-08-27T02:00:05.578Z,52.30
2022-08-27T02:02:32.905Z,52.17
2022-08-27T02:05:04.495Z,52.55
2022-08-27T02:07:31.544Z,52.36
2022-08-27T02:09:58.396Z,52.60
2022-08-27T02:12:25.325Z,52.31
2022-08-27T02:15:01.475Z,52.20
2022-08-27T02:17:28.978Z,52.58
2022-08-27T02:19:55.807Z,52.70
2022-08-27T02:22:22.711Z,52.82
2022-08-27T02:24:49.356Z,52.79
2022-08-27T02:27:16.613Z,52.36
2022-08-27T02:29:43.301Z,52.90
2022-08-27T02:32:23.954Z,52.91
2022-08-27T02:34:59.364Z,52.73
2022-08-27T02:37:26.080Z,52.81
2022-08-27T02:39:53.337Z,52.87
2022-08-27T02:42:20.196Z,52.91
2022-08-27T02:44:47.438Z,52.90
2022-08-27T02:47:14.653Z,52.96
2022-08-27T02:49:41.494Z,52.99
2022-08-27T02:52:08.631Z,52.61
2022-08-27T02:54:35.848Z,52.75
2022-08-27T02:57:02.686Z,53.12
2022-08-27T02:59:29.425Z,52.89
2022-08-27T03:01:56.198Z,53.06
2022-08-27T03:04:24.038Z,52.89
2022-08-27T03:06:50.757Z,53.14
2022-08-27T03:09:17.547Z,53.09
2022-08-27T03:11:44.290Z,52.93
2022-08-27T03:14:11.005Z,53.01
2022-08-27T03:16:37.843Z,52.87
2022-08-27T03:19:07.662Z,52.84
2022-08-27T03:21:35.559Z,52.79
2022-08-27T03:24:09.194Z,53.26
2022-08-27T03:26:38.322Z,53.30
2022-08-27T03:29:05.592Z,52.81
2022-08-27T03:31:32.469Z,53.28
2022-08-27T03:34:01.143Z,53.11
2022-08-27T03:36:29.046Z,53.11
2022-08-27T03:38:56.226Z,53.02
2022-08-27T03:41:23.680Z,52.82
2022-08-27T03:44:10.554Z,52.83
2022-08-27T03:46:45.686Z,52.86
2022-08-27T03:49:13.309Z,52.83
2022-08-27T03:51:40.307Z,52.90
2022-08-27T03:54:07.269Z,53.16
2022-08-27T03:56:39.505Z,52.91
2022-08-27T03:59:06.953Z,53.24
2022-08-27T04:01:33.928Z,53.21
2022-08-27T04:04:00.809Z,52.74
2022-08-27T04:06:28.491Z,52.96
2022-08-27T04:08:55.238Z,52.90
2022-08-27T04:11:22.364Z,52.77
2022-08-27T04:13:49.211Z,52.61
2022-08-27T04:16:16.093Z,52.98
2022-08-27T04:18:42.931Z,52.95
2022-08-27T04:21:11.737Z,52.81
2022-08-27T04:23:39.066Z,52.77
2022-08-27T04:26:06.786Z,52.81
2022-08-27T04:28:38.254Z,52.92
2022-08-27T04:31:13.886Z,52.90
2022-08-27T04:33:43.663Z,52.99
2022-08-27T04:36:17.992Z,52.54
2022-08-27T04:38:44.737Z,52.98
2022-08-27T04:41:21.609Z,52.89
2022-08-27T04:43:49.708Z,52.61
2022-08-27T04:46:20.047Z,52.77
2022-08-27T04:48:46.963Z,52.90
2022-08-27T04:51:16.010Z,52.86
2022-08-27T04:53:44.579Z,52.84
2022-08-27T04:56:14.351Z,52.88
2022-08-27T04:58:43.967Z,52.60
2022-08-27T05:01:15.515Z,52.58
2022-08-27T05:03:42.467Z,52.60
2022-08-27T05:06:09.438Z,53.07
2022-08-27T05:08:36.177Z,52.98
2022-08-27T05:11:02.913Z,53.10
2022-08-27T05:13:30.110Z,52.73
2022-08-27T05:16:04.084Z,53.09
2022-08-27T05:18:32.529Z,52.74
2022-08-27T05:21:01.962Z,52.54
2022-08-27T05:23:29.074Z,52.63
2022-08-27T05:25:57.260Z,52.64
2022-08-27T05:28:27.846Z,53.18
2022-08-27T05:30:56.630Z,53.00
2022-08-27T05:33:25.737Z,52.97
2022-08-27T05:35:54.444Z,53.27
2022-08-27T05:38:22.214Z,52.86
2022-08-27T05:40:49.373Z,52.85
2022-08-27T05:43:16.786Z,53.13
2022-08-27T05:45:48.003Z,53.08
2022-08-27T05:48:16.421Z,52.79
2022-08-27T05:50:43.869Z,52.78
2022-08-27T05:53:11.606Z,52.87
2022-08-27T05:55:42.945Z,52.98
2022-08-27T05:58:30.234Z,52.64
2022-08-27T06:01:09.596Z,52.89
2022-08-27T06:03:38.209Z,52.82
2022-08-27T06:06:06.547Z,52.93
2022-08-27T06:08:33.226Z,53.06
2022-08-27T06:11:05.460Z,52.95
2022-08-27T06:13:32.915Z,52.99
2022-08-27T06:16:03.447Z,52.97
2022-08-27T06:18:33.731Z,52.99
2022-08-27T06:21:01.292Z,52.73
2022-08-27T06:23:28.942Z,52.96
2022-08-27T06:25:57.074Z,52.76
2022-08-27T06:28:24.467Z,52.98
2022-08-27T06:30:51.433Z,53.04
2022-08-27T06:33:18.123Z,53.18
2022-08-27T06:35:44.711Z,53.02
2022-08-27T06:38:11.483Z,52.90
2022-08-27T06:40:40.538Z,53.05
2022-08-27T06:43:07.153Z,52.98
2022-08-27T06:45:37.767Z,53.11
2022-08-27T06:48:04.468Z,53.24
2022-08-27T06:50:36.684Z,53.28
2022-08-27T06:53:04.279Z,53.41
2022-08-27T06:55:34.206Z,53.38
2022-08-27T06:58:03.461Z,53.03
2022-08-27T07:00:30.183Z,53.30
2022-08-27T07:02:57.151Z,53.26
2022-08-27T07:05:23.774Z,53.26
2022-08-27T07:07:50.802Z,53.30
2022-08-27T07:10:17.406Z,52.97
2022-08-27T07:12:44.021Z,53.06
2022-08-27T07:15:13.917Z,53.24
2022-08-27T07:17:41.929Z,53.57
2022-08-27T07:20:08.669Z,53.20
2022-08-27T07:22:35.288Z,53.30
2022-08-27T07:25:01.937Z,53.26
2022-08-27T07:27:28.620Z,53.30
2022-08-27T07:29:55.255Z,53.68
2022-08-27T07:32:21.922Z,53.21
2022-08-27T07:34:57.058Z,53.25
2022-08-27T07:37:23.869Z,53.61
2022-08-27T07:39:59.368Z,53.51
2022-08-27T07:42:44.456Z,53.74
2022-08-27T07:45:13.996Z,53.17
2022-08-27T07:47:40.617Z,53.72
2022-08-27T07:50:07.500Z,53.61
2022-08-27T07:52:34.678Z,53.75
2022-08-27T07:55:01.682Z,53.79
2022-08-27T07:57:28.286Z,53.97
2022-08-27T07:59:54.961Z,53.74
2022-08-27T08:02:21.588Z,53.86
2022-08-27T08:04:48.288Z,53.93
2022-08-27T08:07:15.172Z,53.82
2022-08-27T08:09:41.792Z,53.97
2022-08-27T08:12:08.813Z,54.13
2022-08-27T08:14:35.446Z,54.08
2022-08-27T08:17:02.744Z,53.84
2022-08-27T08:19:33.904Z,54.17
2022-08-27T08:22:05.362Z,53.85
2022-08-27T08:24:32.537Z,54.00
2022-08-27T08:27:00.427Z,53.77
2022-08-27T08:29:29.492Z,53.61
2022-08-27T08:31:56.091Z,54.13
2022-08-27T08:34:22.930Z,53.79
2022-08-27T08:36:54.648Z,54.08
2022-08-27T08:39:22.069Z,53.47
2022-08-27T08:41:50.791Z,53.44
2022-08-27T08:44:36.183Z,53.41
2022-08-27T08:47:08.250Z,53.59
2022-08-27T08:49:38.208Z,53.61
2022-08-27T08:52:30.637Z,53.82
2022-08-27T08:55:19.077Z,53.63
2022-08-27T08:57:49.722Z,53.54
2022-08-27T09:00:16.764Z,53.45
2022-08-27T09:02:48.969Z,53.43
2022-08-27T09:05:16.151Z,53.61
2022-08-27T09:07:47.118Z,53.50
2022-08-27T09:10:13.950Z,53.29
2022-08-27T09:12:40.662Z,53.30
2022-08-27T09:15:18.929Z,53.16
2022-08-27T09:17:48.388Z,53.02
2022-08-27T09:20:21.486Z,53.09
2022-08-27T09:23:01.763Z,53.53
2022-08-27T09:25:36.175Z,53.72
2022-08-27T09:28:06.345Z,53.64
2022-08-27T09:30:41.439Z,53.40
2022-08-27T09:33:08.520Z,53.56
2022-08-27T09:35:45.601Z,53.21
2022-08-27T09:38:22.423Z,53.61
2022-08-27T09:40:51.235Z,53.13
2022-08-27T09:43:23.334Z,53.58
2022-08-27T09:45:54.624Z,53.33
2022-08-27T09:48:22.931Z,53.23
2022-08-27T09:50:52.732Z,53.06
2022-08-27T09:53:25.644Z,53.03
2022-08-27T09:56:00.037Z,53.36
2022-08-27T09:58:30.728Z,53.17
2022-08-27T10:01:08.170Z,53.08
2022-08-27T10:03:34.934Z,52.88
2022-08-27T10:06:01.777Z,53.49
2022-08-27T10:08:38.660Z,52.48
2022-08-27T10:11:10.294Z,52.10
2022-08-27T10:13:36.966Z,52.47
2022-08-27T10:16:06.687Z,52.29
2022-08-27T10:18:45.084Z,52.23
2022-08-27T10:21:43.957Z,52.23
2022-08-27T10:24:19.493Z,52.81
2022-08-27T10:26:55.227Z,52.89
2022-08-27T10:29:34.421Z,53.13
2022-08-27T10:32:16.668Z,52.98
2022-08-27T10:34:51.160Z,52.78
2022-08-27T10:37:36.737Z,52.16
2022-08-27T10:40:13.215Z,52.42
2022-08-27T10:42:49.536Z,51.73
2022-08-27T10:45:31.637Z,52.31
2022-08-27T10:47:58.284Z,52.68
2022-08-27T10:50:37.608Z,52.49
2022-08-27T10:53:23.475Z,52.82
2022-08-27T10:55:52.652Z,52.56
2022-08-27T10:58:31.568Z,52.17
2022-08-27T11:01:06.290Z,52.91
2022-08-27T11:03:36.018Z,52.23
2022-08-27T11:06:06.481Z,52.45
2022-08-27T11:08:41.268Z,53.06
2022-08-27T11:11:51.484Z,52.75
2022-08-27T11:14:01.196Z,52.51
2022-08-27T11:16:48.524Z,51.86
2022-08-27T11:19:19.187Z,51.82
2022-08-27T11:21:45.793Z,51.33
2022-08-27T11:24:12.731Z,51.64
2022-08-27T11:26:42.041Z,51.53
2022-08-27T11:29:31.671Z,51.94
2022-08-27T11:32:22.629Z,51.97
2022-08-27T11:34:49.275Z,52.13
2022-08-27T11:37:15.911Z,52.53
2022-08-27T11:39:51.672Z,52.01
2022-08-27T11:42:37.725Z,51.98
2022-08-27T11:45:15.626Z,52.16
2022-08-27T11:47:51.793Z,51.58
2022-08-27T11:50:19.964Z,51.24
2022-08-27T11:52:55.438Z,51.24
2022-08-27T11:55:22.025Z,51.41
2022-08-27T11:57:49.662Z,51.49
2022-08-27T12:00:19.985Z,51.83
2022-08-27T12:02:57.425Z,51.67
2022-08-27T12:05:32.615Z,51.08
2022-08-27T12:07:59.934Z,51.45
2022-08-27T12:10:52.410Z,50.96
2022-08-27T12:13:21.863Z,51.66
2022-08-27T12:15:51.141Z,51.10
2022-08-27T12:18:26.567Z,52.00
2022-08-27T12:20:53.147Z,51.31
2022-08-27T12:23:44.053Z,51.06
2022-08-27T12:26:17.588Z,51.18
2022-08-27T12:28:44.298Z,51.04
2022-08-27T12:31:11.011Z,51.30
2022-08-27T12:33:45.802Z,51.12
2022-08-27T12:36:15.846Z,50.88
2022-08-27T12:38:50.617Z,50.95
2022-08-27T12:41:43.797Z,50.42
2022-08-27T12:44:13.383Z,50.55
2022-08-27T12:46:52.775Z,50.92
2022-08-27T12:49:38.887Z,50.92
2022-08-27T12:52:14.712Z,50.96
2022-08-27T12:54:52.111Z,51.62
2022-08-27T12:57:34.772Z,50.98
2022-08-27T13:00:14.164Z,50.93
2022-08-27T13:02:47.586Z,50.98
2022-08-27T13:05:20.143Z,50.80
2022-08-27T13:07:48.991Z,50.54
2022-08-27T13:10:18.359Z,50.89
2022-08-27T13:12:46.046Z,50.88
2022-08-27T13:15:19.910Z,50.38
2022-08-27T13:17:47.550Z,50.07
2022-08-27T13:20:16.574Z,50.34
2022-08-27T13:22:44.037Z,50.38
2022-08-27T13:25:21.193Z,50.20
2022-08-27T13:28:14.241Z,49.81
2022-08-27T13:30:44.175Z,49.84
2022-08-27T13:33:13.479Z,49.84
2022-08-27T13:35:43.701Z,49.87
2022-08-27T13:38:10.968Z,49.51
2022-08-27T13:40:50.567Z,49.37
2022-08-27T13:43:17.782Z,49.39
2022-08-27T13:45:48.567Z,49.10
2022-08-27T13:48:17.926Z,49.46
2022-08-27T13:50:49.759Z,49.38
2022-08-27T13:53:38.192Z,49.22
2022-08-27T13:56:04.832Z,49.32
2022-08-27T13:58:33.852Z,49.31
2022-08-27T14:01:10.159Z,48.96
2022-08-27T14:03:45.214Z,49.02
2022-08-27T14:06:21.823Z,49.03
2022-08-27T14:08:48.456Z,48.54
2022-08-27T14:11:22.566Z,48.84
2022-08-27T14:13:49.849Z,48.88
2022-08-27T14:16:24.219Z,48.84
2022-08-27T14:18:59.223Z,48.86
2022-08-27T14:21:26.257Z,48.84
2022-08-27T14:23:54.216Z,48.97
2022-08-27T14:26:21.131Z,48.80
2022-08-27T14:28:47.864Z,48.78
2022-08-27T14:31:14.786Z,48.52
2022-08-27T14:33:41.500Z,48.92
2022-08-27T14:36:09.242Z,48.59
2022-08-27T14:38:37.941Z,48.72
2022-08-27T14:41:08.013Z,48.84
2022-08-27T14:43:34.897Z,49.22
2022-08-27T14:46:03.449Z,49.20
2022-08-27T14:48:34.762Z,49.08
2022-08-27T14:51:08.064Z,49.08
2022-08-27T14:53:34.700Z,48.93
2022-08-27T14:56:02.008Z,48.94
2022-08-27T14:58:29.559Z,48.59
2022-08-27T15:00:57.828Z,49.09
2022-08-27T15:03:28.453Z,49.03
2022-08-27T15:05:55.889Z,48.92
2022-08-27T15:08:27.072Z,48.88
2022-08-27T15:10:57.049Z,49.31
2022-08-27T15:13:25.595Z,49.09
2022-08-27T15:15:52.755Z,49.07
2022-08-27T15:18:19.754Z,49.12
2022-08-27T15:20:46.390Z,49.46
2022-08-27T15:23:14.297Z,49.13
2022-08-27T15:25:41.855Z,49.16
2022-08-27T15:28:08.905Z,49.32
2022-08-27T15:30:37.166Z,49.26
2022-08-27T15:33:06.241Z,49.29
2022-08-27T15:35:33.123Z,49.33
2022-08-27T15:37:59.949Z,49.33
2022-08-27T15:40:27.601Z,49.15
2022-08-27T15:42:59.134Z,49.57
2022-08-27T15:45:27.766Z,49.45
2022-08-27T15:47:55.036Z,49.62
2022-08-27T15:50:21.761Z,49.49
2022-08-27T15:52:49.490Z,49.56
2022-08-27T15:55:22.915Z,49.47
2022-08-27T15:57:50.029Z,49.35
2022-08-27T16:00:17.170Z,49.35
2022-08-27T16:02:44.929Z,49.32
2022-08-27T16:05:17.677Z,49.36
2022-08-27T16:07:44.805Z,49.34
2022-08-27T16:10:11.985Z,49.33
2022-08-27T16:12:38.672Z,49.19
2022-08-27T16:15:17.536Z,49.47
2022-08-27T16:17:44.995Z,49.52
2022-08-27T16:20:13.484Z,49.56
2022-08-27T16:22:42.119Z,49.32
2022-08-27T16:25:18.643Z,49.37
2022-08-27T16:27:47.703Z,49.38
2022-08-27T16:30:14.369Z,49.11
2022-08-27T16:32:44.934Z,49.33
2022-08-27T16:35:18.894Z,49.06
2022-08-27T16:37:45.646Z,49.41
2022-08-27T16:40:13.473Z,49.71
2022-08-27T16:42:42.440Z,49.47
2022-08-27T16:45:16.879Z,49.56
2022-08-27T16:48:02.548Z,50.10
2022-08-27T16:50:34.951Z,49.69
2022-08-27T16:53:06.313Z,50.05
2022-08-27T16:55:33.848Z,50.04
2022-08-27T16:58:00.824Z,50.20
2022-08-27T17:00:27.646Z,50.06
2022-08-27T17:02:54.390Z,50.02
2022-08-27T17:05:33.889Z,49.81
2022-08-27T17:08:01.261Z,50.15
2022-08-27T17:10:32.817Z,50.08
2022-08-27T17:12:59.691Z,49.84
2022-08-27T17:15:26.413Z,50.02
2022-08-27T17:17:53.096Z,50.25
2022-08-27T17:20:19.759Z,50.32
2022-08-27T17:22:46.432Z,50.47
2022-08-27T17:25:13.838Z,50.86
2022-08-27T17:27:40.521Z,50.42
2022-08-27T17:30:08.076Z,51.11
2022-08-27T17:32:37.091Z,50.70
2022-08-27T17:35:07.766Z,51.03
2022-08-27T17:37:34.744Z,50.84
2022-08-27T17:40:01.647Z,50.87
2022-08-27T17:42:29.234Z,50.87
2022-08-27T17:44:55.896Z,51.06
2022-08-27T17:47:24.877Z,50.69
2022-08-27T17:49:52.109Z,50.90
2022-08-27T17:52:19.116Z,50.94
2022-08-27T17:54:51.264Z,51.18
2022-08-27T17:57:19.884Z,51.14
2022-08-27T17:59:46.895Z,50.85
2022-08-27T18:02:18.626Z,51.11
2022-08-27T18:04:45.298Z,51.20
2022-08-27T18:07:12.001Z,51.29
2022-08-27T18:09:42.107Z,51.21
2022-08-27T18:12:09.604Z,51.28
2022-08-27T18:14:36.361Z,51.33
2022-08-27T18:17:03.167Z,51.48
2022-08-27T18:19:29.849Z,51.44
2022-08-27T18:21:56.858Z,51.52
2022-08-27T18:24:23.788Z,51.54
2022-08-27T18:26:50.602Z,51.79
2022-08-27T18:29:18.401Z,51.72
2022-08-27T18:31:45.134Z,51.55
2022-08-27T18:34:11.762Z,51.61
2022-08-27T18:36:38.668Z,51.63
2022-08-27T18:39:05.429Z,51.62
2022-08-27T18:41:32.839Z,51.58
2022-08-27T18:44:00.910Z,51.60
2022-08-27T18:46:28.076Z,51.32
2022-08-27T18:48:54.992Z,51.45
2022-08-27T18:51:21.949Z,51.62
2022-08-27T18:53:49.231Z,51.78
2022-08-27T18:56:17.190Z,51.64
2022-08-27T18:58:44.568Z,51.69
2022-08-27T19:01:14.223Z,51.68
2022-08-27T19:03:45.279Z,51.57
2022-08-27T19:06:13.204Z,51.65
2022-08-27T19:08:40.705Z,51.13
2022-08-27T19:11:07.794Z,50.92
2022-08-27T19:13:34.968Z,51.49
2022-08-27T19:16:23.846Z,51.60
2022-08-27T19:18:51.358Z,51.59
2022-08-27T19:21:18.241Z,51.35
2022-08-27T19:23:45.240Z,51.79
2022-08-27T19:26:16.883Z,51.42
2022-08-27T19:28:45.523Z,51.53
2022-08-27T19:31:13.368Z,51.66
2022-08-27T19:33:40.639Z,51.64
2022-08-27T19:36:11.458Z,51.53
2022-08-27T19:38:41.989Z,51.73
2022-08-27T19:41:08.989Z,51.86
2022-08-27T19:43:35.931Z,51.64
2022-08-27T19:46:03.570Z,51.69
2022-08-27T19:48:32.287Z,51.54
2022-08-27T19:50:59.193Z,51.39
2022-08-27T19:53:26.265Z,51.66
2022-08-27T19:55:53.565Z,51.44
2022-08-27T19:58:20.647Z,51.16
2022-08-27T20:00:48.303Z,51.29
2022-08-27T20:03:15.433Z,51.21
2022-08-27T20:05:43.145Z,51.17
2022-08-27T20:08:10.384Z,51.24
2022-08-27T20:10:40.087Z,51.14
2022-08-27T20:13:07.527Z,51.00
2022-08-27T20:15:35.286Z,50.83
2022-08-27T20:18:02.908Z,50.79
2022-08-27T20:20:30.357Z,50.66
2022-08-27T20:22:57.549Z,50.79
2022-08-27T20:25:25.336Z,50.42
2022-08-27T20:27:53.081Z,50.77
2022-08-27T20:30:23.298Z,50.35
2022-08-27T20:32:50.648Z,50.59
2022-08-27T20:35:19.938Z,50.67
2022-08-27T20:37:47.170Z,50.58
2022-08-27T20:40:17.321Z,50.60
2022-08-27T20:42:44.944Z,50.69
2022-08-27T20:45:16.898Z,50.22
2022-08-27T20:47:44.379Z,50.66
2022-08-27T20:50:13.321Z,50.48
2022-08-27T20:52:41.003Z,50.47
2022-08-27T20:55:16.368Z,50.59
2022-08-27T20:58:06.806Z,50.48
2022-08-27T21:00:35.058Z,50.64
2022-08-27T21:03:02.027Z,50.66
2022-08-27T21:05:31.929Z,50.22
2022-08-27T21:07:58.831Z,50.39
2022-08-27T21:10:25.681Z,50.69
2022-08-27T21:12:52.531Z,50.70
2022-08-27T21:15:20.915Z,50.24
2022-08-27T21:17:48.231Z,50.66
2022-08-27T21:20:15.747Z,50.55
2022-08-27T21:22:43.318Z,50.27
2022-08-27T21:25:15.765Z,50.68
2022-08-27T21:27:42.975Z,50.31
2022-08-27T21:30:11.394Z,50.45
2022-08-27T21:32:38.303Z,50.62
2022-08-27T21:35:12.364Z,50.34
2022-08-27T21:37:39.695Z,50.35
2022-08-27T21:40:07.106Z,50.52
2022-08-27T21:42:34.640Z,50.74
2022-08-27T21:45:01.729Z,50.52
2022-08-27T21:47:30.247Z,50.46
2022-08-27T21:49:56.954Z,50.47
2022-08-27T21:52:24.118Z,50.86
2022-08-27T21:54:50.805Z,50.67
2022-08-27T21:57:17.759Z,50.53
2022-08-27T21:59:46.078Z,50.59
2022-08-27T22:02:38.089Z,50.83
2022-08-27T22:05:01.081Z,50.35
2022-08-27T22:07:28.344Z,50.93
2022-08-27T22:09:55.478Z,50.73
2022-08-27T22:12:22.294Z,50.71
2022-08-27T22:14:49.092Z,50.78
2022-08-27T22:17:16.017Z,50.85
2022-08-27T22:19:42.874Z,50.76
2022-08-27T22:22:09.727Z,51.03
2022-08-27T22:24:36.484Z,50.96
2022-08-27T22:27:03.195Z,50.99
2022-08-27T22:29:30.615Z,51.23
2022-08-27T22:31:57.501Z,50.87
2022-08-27T22:34:24.163Z,51.06
2022-08-27T22:36:50.853Z,51.12
2022-08-27T22:39:17.615Z,51.10
2022-08-27T22:41:45.774Z,51.11
2022-08-27T22:44:15.538Z,51.43
2022-08-27T22:46:42.739Z,51.22
2022-08-27T22:49:09.705Z,51.29
2022-08-27T22:51:36.553Z,51.01
2022-08-27T22:54:03.265Z,50.86
2022-08-27T22:56:29.940Z,51.09
2022-08-27T22:58:56.938Z,51.10
2022-08-27T23:01:24.862Z,50.83
2022-08-27T23:03:52.042Z,51.20
2022-08-27T23:06:19.884Z,50.84
2022-08-27T23:08:46.650Z,50.71
2022-08-27T23:11:13.581Z,51.09
2022-08-27T23:13:40.834Z,50.94
2022-08-27T23:16:09.907Z,50.70
2022-08-27T23:18:37.330Z,50.97
2022-08-27T23:21:06.143Z,51.10
2022-08-27T23:23:33.455Z,50.97
2022-08-27T23:26:18.410Z,50.90
2022-08-27T23:28:45.693Z,51.03
2022-08-27T23:31:13.194Z,51.05
2022-08-27T23:33:40.224Z,50.88
2022-08-27T23:36:07.394Z,51.11
2022-08-27T23:38:34.575Z,50.62
2022-08-27T23:41:01.418Z,51.21
2022-08-27T23:43:28.257Z,50.96
2022-08-27T23:45:54.881Z,50.86
2022-08-27T23:48:21.649Z,51.20
2022-08-27T23:50:48.366Z,51.28
2022-08-27T23:53:15.173Z,50.89
2022-08-27T23:55:42.072Z,50.80
2022-08-27T23:58:09.395Z,50.99
